createdAt,value
2023-04-15T00:01:00.717Z,87.45
2023-04-15T00:03:28.210Z,87.08
2023-04-15T00:05:54.886Z,86.79
2023-04-15T00:08:21.481Z,87.30
2023-04-15T00:10:48.814Z,87.32
2023-04-15T00:13:15.882Z,87.28
2023-04-15T00:15:42.597Z,87.58
2023-04-15T00:18:09.102Z,87.67
2023-04-15T00:20:36.354Z,87.67
2023-04-15T00:23:03.252Z,87.43
2023-04-15T00:25:29.771Z,87.78
2023-04-15T00:27:56.325Z,87.81
2023-04-15T00:30:23.250Z,88.10
2023-04-15T00:32:49.813Z,88.21
2023-04-15T00:35:18.395Z,87.82
2023-04-15T00:37:46.183Z,87.63
2023-04-15T00:40:13.270Z,87.52
2023-04-15T00:42:40.361Z,87.61
2023-04-15T00:45:08.202Z,87.45
2023-04-15T00:47:36.679Z,87.54
2023-04-15T00:50:04.309Z,87.41
2023-04-15T00:52:31.378Z,87.38
2023-04-15T00:54:59.246Z,87.32
2023-04-15T00:57:26.762Z,87.11
2023-04-15T00:59:55.388Z,86.90
2023-04-15T01:02:23.305Z,86.89
2023-04-15T01:04:50.714Z,86.84
2023-04-15T01:07:17.289Z,86.71
2023-04-15T01:09:44.986Z,86.71
2023-04-15T01:12:14.920Z,86.48
2023-04-15T01:14:41.715Z,86.49
2023-04-15T01:17:08.713Z,86.55
2023-04-15T01:19:39.201Z,86.07
2023-04-15T01:22:05.743Z,86.07
2023-04-15T01:24:35.530Z,86.18
2023-04-15T01:27:03.874Z,86.34
2023-04-15T01:29:32.208Z,85.98
2023-04-15T01:31:58.905Z,85.93
2023-04-15T01:34:26.860Z,85.98
2023-04-15T01:36:54.160Z,85.73
2023-04-15T01:39:22.026Z,85.86
2023-04-15T01:41:48.583Z,85.64
2023-04-15T01:44:16.157Z,85.58
2023-04-15T01:46:42.769Z,85.50
2023-04-15T01:49:09.324Z,85.33
2023-04-15T01:51:36.013Z,85.29
2023-04-15T01:54:03.515Z,85.06
2023-04-15T01:56:30.197Z,85.05
2023-04-15T01:58:56.750Z,84.88
2023-04-15T02:01:23.401Z,84.88
2023-04-15T02:03:50.666Z,84.83
2023-04-15T02:06:17.704Z,85.06
2023-04-15T02:08:44.551Z,84.90
2023-04-15T02:11:11.182Z,84.69
2023-04-15T02:13:37.889Z,84.60
2023-04-15T02:16:15.988Z,84.41
2023-04-15T02:18:45.024Z,84.40
2023-04-15T02:21:11.823Z,84.43
2023-04-15T02:23:38.335Z,84.42
2023-04-15T02:26:04.907Z,84.27
2023-04-15T02:28:31.556Z,84.13
2023-04-15T02:30:59.244Z,84.24
2023-04-15T02:33:25.807Z,84.06
2023-04-15T02:35:52.592Z,83.90
2023-04-15T02:38:19.244Z,83.80
2023-04-15T02:40:45.974Z,83.95
2023-04-15T02:43:12.910Z,83.80
2023-04-15T02:45:39.773Z,83.92
2023-04-15T02:48:06.629Z,83.88
2023-04-15T02:50:33.404Z,83.82
2023-04-15T02:53:01.960Z,83.74
2023-04-15T02:55:29.046Z,83.83
2023-04-15T02:57:57.740Z,83.89
2023-04-15T03:00:24.715Z,83.77
2023-04-15T03:02:55.830Z,83.70
2023-04-15T03:05:25.223Z,83.79
2023-04-15T03:07:52.118Z,84.11
2023-04-15T03:10:19.581Z,83.60
2023-04-15T03:12:46.626Z,83.63
2023-04-15T03:15:16.551Z,83.35
2023-04-15T03:17:45.658Z,83.16
2023-04-15T03:20:12.929Z,83.35
2023-04-15T03:22:39.730Z,83.23
2023-04-15T03:25:07.098Z,83.25
2023-04-15T03:27:33.645Z,83.26
2023-04-15T03:30:00.872Z,83.39
2023-04-15T03:32:28.852Z,83.24
2023-04-15T03:34:55.410Z,83.27
2023-04-15T03:37:21.878Z,83.02
2023-04-15T03:39:48.410Z,83.17
2023-04-15T03:42:15.060Z,82.92
2023-04-15T03:44:41.708Z,82.80
2023-04-15T03:47:08.383Z,82.85
2023-04-15T03:49:35.975Z,82.67
2023-04-15T03:52:02.872Z,82.57
2023-04-15T03:54:29.934Z,82.66
2023-04-15T03:56:57.221Z,83.04
2023-04-15T03:59:23.863Z,82.68
2023-04-15T04:01:50.553Z,82.28
2023-04-15T04:04:17.201Z,82.23
2023-04-15T04:06:43.837Z,82.14
2023-04-15T04:09:10.664Z,82.30
2023-04-15T04:11:37.198Z,82.47
2023-04-15T04:14:03.726Z,82.50
2023-04-15T04:16:30.409Z,82.63
2023-04-15T04:18:57.131Z,82.60
2023-04-15T04:21:23.719Z,82.39
2023-04-15T04:23:50.382Z,82.35
2023-04-15T04:26:17.052Z,82.70
2023-04-15T04:28:43.558Z,82.43
2023-04-15T04:31:10.243Z,82.61
2023-04-15T04:33:37.141Z,82.57
2023-04-15T04:36:04.053Z,82.62
2023-04-15T04:38:30.709Z,82.80
2023-04-15T04:40:57.250Z,82.43
2023-04-15T04:43:23.896Z,82.39
2023-04-15T04:45:50.631Z,82.25
2023-04-15T04:48:17.760Z,82.43
2023-04-15T04:50:44.820Z,82.37
2023-04-15T04:53:11.443Z,82.31
2023-04-15T04:55:38.062Z,82.37
2023-04-15T04:58:04.569Z,82.51
2023-04-15T05:00:31.116Z,82.05
2023-04-15T05:02:58.123Z,81.83
2023-04-15T05:05:24.847Z,81.86
2023-04-15T05:07:51.420Z,81.89
2023-04-15T05:10:17.995Z,81.97
2023-04-15T05:12:44.613Z,81.79
2023-04-15T05:15:11.524Z,81.86
2023-04-15T05:17:38.124Z,81.92
2023-04-15T05:20:05.314Z,81.89
2023-04-15T05:22:32.004Z,81.85
2023-04-15T05:24:58.798Z,81.90
2023-04-15T05:27:25.538Z,82.03
2023-04-15T05:29:52.049Z,81.85
2023-04-15T05:32:18.828Z,81.38
2023-04-15T05:34:45.760Z,81.08
2023-04-15T05:37:12.524Z,80.88
2023-04-15T05:39:39.070Z,80.61
2023-04-15T05:42:06.283Z,80.49
2023-04-15T05:44:33.045Z,80.46
2023-04-15T05:47:00.189Z,80.22
2023-04-15T05:49:26.901Z,80.02
2023-04-15T05:51:53.455Z,79.41
2023-04-15T05:54:21.909Z,79.30
2023-04-15T05:56:48.724Z,79.28
2023-04-15T05:59:15.428Z,79.30
2023-04-15T06:01:42.398Z,78.99
2023-04-15T06:04:09.142Z,78.24
2023-04-15T06:06:35.794Z,77.90
2023-04-15T06:09:02.505Z,77.58
2023-04-15T06:11:29.274Z,77.65
2023-04-15T06:13:55.980Z,77.31
2023-04-15T06:16:22.757Z,77.48
2023-04-15T06:18:49.264Z,76.91
2023-04-15T06:21:15.772Z,77.10
2023-04-15T06:23:42.377Z,76.49
2023-04-15T06:26:09.046Z,76.05
2023-04-15T06:28:35.838Z,76.12
2023-04-15T06:31:02.761Z,76.01
2023-04-15T06:33:29.394Z,76.21
2023-04-15T06:35:55.884Z,76.33
2023-04-15T06:38:22.580Z,75.82
2023-04-15T06:40:49.156Z,75.77
2023-04-15T06:43:15.873Z,75.47
2023-04-15T06:45:42.480Z,75.37
2023-04-15T06:48:09.149Z,75.57
2023-04-15T06:50:35.798Z,75.20
2023-04-15T06:53:03.148Z,74.86
2023-04-15T06:55:30.960Z,74.50
2023-04-15T06:57:57.788Z,74.22
2023-04-15T07:00:24.800Z,74.37
2023-04-15T07:02:51.412Z,74.53
2023-04-15T07:05:18.356Z,74.63
2023-04-15T07:07:45.491Z,74.67
2023-04-15T07:10:12.237Z,74.48
2023-04-15T07:12:38.871Z,74.54
2023-04-15T07:15:06.190Z,74.35
2023-04-15T07:17:32.771Z,74.56
2023-04-15T07:19:59.394Z,74.47
2023-04-15T07:22:26.058Z,74.51
2023-04-15T07:24:52.584Z,74.30
2023-04-15T07:27:19.238Z,74.32
2023-04-15T07:29:46.058Z,74.27
2023-04-15T07:32:12.709Z,74.42
2023-04-15T07:34:39.319Z,74.59
2023-04-15T07:37:05.947Z,74.22
2023-04-15T07:39:32.572Z,74.04
2023-04-15T07:41:59.250Z,74.28
2023-04-15T07:44:26.530Z,74.42
2023-04-15T07:46:53.523Z,74.22
2023-04-15T07:49:20.753Z,74.68
2023-04-15T07:51:48.572Z,74.70
2023-04-15T07:54:15.721Z,74.86
2023-04-15T07:56:42.583Z,74.95
2023-04-15T07:59:09.734Z,75.09
2023-04-15T08:01:36.263Z,75.27
2023-04-15T08:04:03.286Z,75.27
2023-04-15T08:06:30.406Z,75.54
2023-04-15T08:08:57.428Z,75.54
2023-04-15T08:11:24.452Z,75.67
2023-04-15T08:13:51.841Z,75.59
2023-04-15T08:16:26.477Z,75.85
2023-04-15T08:18:56.569Z,75.73
2023-04-15T08:21:23.516Z,75.86
2023-04-15T08:23:51.866Z,75.55
2023-04-15T08:26:20.826Z,75.67
2023-04-15T08:28:49.108Z,75.60
2023-04-15T08:31:16.953Z,75.40
2023-04-15T08:33:43.640Z,75.44
2023-04-15T08:36:10.429Z,75.19
2023-04-15T08:38:37.034Z,75.05
2023-04-15T08:41:07.697Z,75.02
2023-04-15T08:43:41.926Z,73.52
2023-04-15T08:46:10.143Z,73.81
2023-04-15T08:48:38.208Z,73.50
2023-04-15T08:51:05.116Z,73.34
2023-04-15T08:53:32.096Z,72.44
2023-04-15T08:56:04.202Z,72.78
2023-04-15T08:58:30.810Z,71.98
2023-04-15T09:00:58.282Z,71.27
2023-04-15T09:03:25.719Z,71.09
2023-04-15T09:05:53.307Z,71.29
2023-04-15T09:08:20.511Z,70.78
2023-04-15T09:10:47.092Z,70.29
2023-04-15T09:13:13.801Z,68.68
2023-04-15T09:15:40.411Z,68.61
2023-04-15T09:18:07.040Z,68.08
2023-04-15T09:20:42.708Z,67.27
2023-04-15T09:23:14.196Z,67.05
2023-04-15T09:25:42.057Z,67.81
2023-04-15T09:28:08.694Z,66.92
2023-04-15T09:30:36.364Z,67.40
2023-04-15T09:33:10.362Z,67.36
2023-04-15T09:35:37.141Z,67.12
2023-04-15T09:38:06.633Z,65.39
2023-04-15T09:40:33.215Z,65.33
2023-04-15T09:43:01.428Z,66.01
2023-04-15T09:45:29.671Z,66.10
2023-04-15T09:48:15.636Z,66.13
2023-04-15T09:50:43.395Z,65.30
2023-04-15T09:53:11.793Z,64.51
2023-04-15T09:55:38.515Z,64.46
2023-04-15T09:58:09.738Z,64.16
2023-04-15T10:00:37.763Z,63.56
2023-04-15T10:03:06.666Z,62.97
2023-04-15T10:05:33.849Z,61.98
2023-04-15T10:08:01.913Z,62.50
2023-04-15T10:10:28.601Z,62.89
2023-04-15T10:12:55.603Z,63.52
2023-04-15T10:15:23.986Z,64.04
2023-04-15T10:17:53.691Z,62.93
2023-04-15T10:20:21.943Z,62.88
2023-04-15T10:22:49.105Z,63.12
2023-04-15T10:25:15.824Z,62.82
2023-04-15T10:27:42.894Z,62.98
2023-04-15T10:30:11.057Z,62.68
2023-04-15T10:32:38.562Z,62.47
2023-04-15T10:35:05.855Z,62.55
2023-04-15T10:37:38.087Z,62.03
2023-04-15T10:40:27.007Z,62.23
2023-04-15T10:42:55.992Z,62.50
2023-04-15T10:45:26.365Z,62.36
2023-04-15T10:48:31.226Z,62.43
2023-04-15T10:51:00.025Z,62.33
2023-04-15T10:53:28.841Z,61.97
2023-04-15T10:55:57.633Z,61.29
2023-04-15T10:58:25.382Z,60.42
2023-04-15T11:00:53.250Z,61.06
2023-04-15T11:03:37.315Z,60.61
2023-04-15T11:06:05.753Z,60.39
2023-04-15T11:08:56.610Z,60.83
2023-04-15T11:11:23.192Z,60.90
2023-04-15T11:13:51.792Z,60.81
2023-04-15T11:16:19.174Z,61.13
2023-04-15T11:18:55.276Z,60.80
2023-04-15T11:21:25.623Z,60.69
2023-04-15T11:23:52.379Z,61.02
2023-04-15T11:26:19.067Z,60.83
2023-04-15T11:28:46.463Z,60.86
2023-04-15T11:31:14.910Z,60.50
2023-04-15T11:34:02.420Z,60.80
2023-04-15T11:36:31.852Z,60.39
2023-04-15T11:38:59.223Z,61.10
2023-04-15T11:41:25.840Z,60.61
2023-04-15T11:43:52.864Z,60.14
2023-04-15T11:46:21.271Z,60.59
2023-04-15T11:48:47.893Z,60.83
2023-04-15T11:51:14.557Z,60.59
2023-04-15T11:53:46.545Z,60.57
2023-04-15T11:56:21.453Z,60.93
2023-04-15T11:58:52.062Z,61.12
2023-04-15T12:01:18.778Z,60.38
2023-04-15T12:03:46.857Z,60.30
2023-04-15T12:06:23.964Z,59.43
2023-04-15T12:08:50.654Z,59.10
2023-04-15T12:11:17.667Z,59.22
2023-04-15T12:13:49.206Z,59.43
2023-04-15T12:16:19.556Z,59.64
2023-04-15T12:18:47.633Z,59.76
2023-04-15T12:21:14.779Z,59.90
2023-04-15T12:23:52.231Z,60.29
2023-04-15T12:26:27.022Z,60.27
2023-04-15T12:29:08.129Z,60.53
2023-04-15T12:31:36.173Z,60.74
2023-04-15T12:34:07.405Z,60.79
2023-04-15T12:36:36.548Z,60.93
2023-04-15T12:39:04.642Z,61.34
2023-04-15T12:41:32.227Z,61.73
2023-04-15T12:43:59.737Z,61.98
2023-04-15T12:46:27.034Z,62.48
2023-04-15T12:48:53.595Z,62.50
2023-04-15T12:51:23.342Z,62.93
2023-04-15T12:53:50.734Z,63.31
2023-04-15T12:56:17.547Z,63.71
2023-04-15T12:58:44.162Z,63.94
2023-04-15T13:01:11.025Z,64.12
2023-04-15T13:03:37.842Z,64.16
2023-04-15T13:06:05.303Z,64.37
2023-04-15T13:08:33.156Z,64.24
2023-04-15T13:11:00.334Z,63.88
2023-04-15T13:13:27.714Z,64.28
2023-04-15T13:15:54.324Z,64.34
2023-04-15T13:18:20.970Z,64.07
2023-04-15T13:20:47.573Z,63.87
2023-04-15T13:23:14.940Z,63.14
2023-04-15T13:25:41.907Z,63.27
2023-04-15T13:28:11.195Z,63.21
2023-04-15T13:30:38.770Z,62.43
2023-04-15T13:33:05.849Z,61.57
2023-04-15T13:35:33.263Z,60.87
2023-04-15T13:37:59.823Z,61.18
2023-04-15T13:40:26.735Z,61.35
2023-04-15T13:42:53.227Z,60.80
2023-04-15T13:45:19.716Z,60.38
2023-04-15T13:47:46.288Z,59.76
2023-04-15T13:50:12.913Z,59.84
2023-04-15T13:52:39.522Z,60.08
2023-04-15T13:55:18.100Z,59.81
2023-04-15T13:57:46.527Z,59.50
2023-04-15T14:00:14.057Z,59.89
2023-04-15T14:02:41.602Z,59.63
2023-04-15T14:05:08.757Z,59.24
2023-04-15T14:07:35.865Z,59.47
2023-04-15T14:10:03.278Z,59.17
2023-04-15T14:15:11.347Z,58.28
2023-04-15T14:17:38.302Z,58.78
2023-04-15T14:20:07.535Z,59.24
2023-04-15T14:22:34.124Z,59.05
2023-04-15T14:25:01.132Z,58.42
2023-04-15T14:27:28.022Z,58.49
2023-04-15T14:29:55.015Z,58.61
2023-04-15T14:32:22.173Z,58.76
2023-04-15T14:34:48.762Z,58.72
2023-04-15T14:37:15.753Z,58.69
2023-04-15T14:39:42.467Z,58.94
2023-04-15T14:42:09.169Z,58.44
2023-04-15T14:44:35.749Z,58.09
2023-04-15T14:47:03.115Z,58.18
2023-04-15T14:49:30.048Z,57.61
2023-04-15T14:51:56.579Z,57.54
2023-04-15T14:54:23.063Z,56.99
2023-04-15T14:56:50.169Z,57.52
2023-04-15T14:59:17.220Z,57.64
2023-04-15T15:01:43.832Z,57.53
2023-04-15T15:04:10.963Z,56.93
2023-04-15T15:06:37.877Z,56.02
2023-04-15T15:09:04.838Z,55.55
2023-04-15T15:11:31.739Z,56.22
2023-04-15T15:13:58.399Z,54.33
2023-04-15T15:16:25.109Z,54.73
2023-04-15T15:18:51.720Z,54.72
2023-04-15T15:21:18.468Z,54.71
2023-04-15T15:23:45.361Z,54.39
2023-04-15T15:26:12.373Z,54.16
2023-04-15T15:28:39.185Z,54.00
2023-04-15T15:31:05.752Z,53.61
2023-04-15T15:33:32.544Z,53.52
2023-04-15T15:35:59.160Z,54.09
2023-04-15T15:38:25.730Z,53.73
2023-04-15T15:40:52.210Z,54.17
2023-04-15T15:43:18.858Z,54.69
2023-04-15T15:45:45.409Z,55.13
2023-04-15T15:48:12.019Z,55.70
2023-04-15T15:50:38.683Z,55.82
2023-04-15T15:53:05.655Z,56.41
2023-04-15T15:55:32.333Z,56.46
2023-04-15T15:57:58.872Z,56.67
2023-04-15T16:00:25.837Z,56.80
2023-04-15T16:03:06.816Z,56.96
2023-04-15T16:05:35.549Z,57.00
2023-04-15T16:08:02.340Z,57.64
2023-04-15T16:10:29.072Z,57.39
2023-04-15T16:12:55.697Z,57.86
2023-04-15T16:15:24.883Z,57.88
2023-04-15T16:17:51.697Z,57.95
2023-04-15T16:20:18.474Z,57.97
2023-04-15T16:22:45.251Z,58.14
2023-04-15T16:25:12.417Z,58.16
2023-04-15T16:30:10.160Z,58.56
2023-04-15T16:32:36.768Z,58.62
2023-04-15T16:35:03.585Z,58.61
2023-04-15T16:37:32.465Z,58.67
2023-04-15T16:39:59.106Z,58.59
2023-04-15T16:42:25.662Z,58.66
2023-04-15T16:44:52.285Z,58.78
2023-04-15T16:47:18.957Z,58.94
2023-04-15T16:49:45.656Z,59.23
2023-04-15T16:52:12.266Z,59.30
2023-04-15T16:54:40.790Z,59.49
2023-04-15T16:57:08.200Z,59.74
2023-04-15T16:59:36.345Z,59.92
2023-04-15T17:02:03.080Z,60.25
2023-04-15T17:04:30.201Z,60.39
2023-04-15T17:06:56.892Z,60.34
2023-04-15T17:09:23.524Z,60.82
2023-04-15T17:11:50.244Z,61.10
2023-04-15T17:14:17.299Z,61.48
2023-04-15T17:16:43.914Z,61.38
2023-04-15T17:19:10.771Z,61.41
2023-04-15T17:21:37.296Z,61.39
2023-04-15T17:24:05.363Z,61.55
2023-04-15T17:26:32.078Z,61.52
2023-04-15T17:28:58.728Z,61.95
2023-04-15T17:31:25.572Z,61.75
2023-04-15T17:34:00.637Z,61.92
2023-04-15T17:36:34.966Z,61.96
2023-04-15T17:39:01.761Z,62.18
2023-04-15T17:41:28.298Z,62.19
2023-04-15T17:43:55.072Z,62.47
2023-04-15T17:46:21.788Z,62.86
2023-04-15T17:48:49.013Z,63.02
2023-04-15T17:51:16.428Z,62.83
2023-04-15T17:53:42.924Z,63.13
2023-04-15T17:56:09.759Z,63.32
2023-04-15T17:58:38.540Z,63.61
2023-04-15T18:01:05.639Z,63.44
2023-04-15T18:03:32.610Z,63.67
2023-04-15T18:06:00.618Z,63.95
2023-04-15T18:08:28.264Z,63.90
2023-04-15T18:10:55.694Z,64.02
2023-04-15T18:13:22.301Z,64.11
2023-04-15T18:15:50.704Z,64.23
2023-04-15T18:18:17.382Z,64.41
2023-04-15T18:20:44.205Z,64.45
2023-04-15T18:23:10.873Z,64.57
2023-04-15T18:25:37.794Z,64.64
2023-04-15T18:28:05.179Z,64.68
2023-04-15T18:30:31.960Z,64.75
2023-04-15T18:32:59.166Z,64.82
2023-04-15T18:35:29.190Z,64.82
2023-04-15T18:38:00.361Z,65.03
2023-04-15T18:40:27.173Z,64.99
2023-04-15T18:42:54.879Z,64.78
2023-04-15T18:45:21.780Z,64.92
2023-04-15T18:47:50.920Z,64.97
2023-04-15T18:50:17.983Z,65.01
2023-04-15T18:52:44.563Z,65.29
2023-04-15T18:55:11.376Z,65.51
2023-04-15T18:57:41.904Z,65.75
2023-04-15T19:00:10.331Z,66.06
2023-04-15T19:02:37.479Z,66.11
2023-04-15T19:05:05.300Z,66.26
2023-04-15T19:07:32.049Z,66.27
2023-04-15T19:09:58.748Z,66.60
2023-04-15T19:12:25.601Z,66.84
2023-04-15T19:14:52.224Z,66.98
2023-04-15T19:17:19.065Z,66.90
2023-04-15T19:19:45.927Z,67.52
2023-04-15T19:22:12.493Z,67.57
2023-04-15T19:24:39.507Z,67.72
2023-04-15T19:27:06.370Z,68.33
2023-04-15T19:29:33.040Z,68.12
2023-04-15T19:31:59.593Z,68.47
2023-04-15T19:34:27.200Z,68.71
2023-04-15T19:36:53.961Z,68.94
2023-04-15T19:39:20.526Z,68.51
2023-04-15T19:41:47.530Z,68.44
2023-04-15T19:44:14.500Z,69.22
2023-04-15T19:46:43.463Z,69.06
2023-04-15T19:49:10.476Z,70.19
2023-04-15T19:51:37.147Z,70.03
2023-04-15T19:54:03.990Z,70.44
2023-04-15T19:56:32.384Z,70.57
2023-04-15T19:59:01.359Z,70.28
2023-04-15T20:01:28.141Z,70.75
2023-04-15T20:03:55.266Z,70.90
2023-04-15T20:06:22.371Z,70.96
2023-04-15T20:08:49.233Z,71.70
2023-04-15T20:11:15.947Z,71.99
2023-04-15T20:13:42.540Z,71.87
2023-04-15T20:16:10.909Z,71.65
2023-04-15T20:18:37.735Z,71.34
2023-04-15T20:21:04.407Z,71.40
2023-04-15T20:23:31.225Z,71.67
2023-04-15T20:25:57.757Z,71.51
2023-04-15T20:28:27.067Z,71.52
2023-04-15T20:30:53.833Z,71.35
2023-04-15T20:33:21.748Z,71.52
2023-04-15T20:35:48.985Z,71.55
2023-04-15T20:38:15.796Z,71.67
2023-04-15T20:40:42.701Z,71.53
2023-04-15T20:43:09.242Z,71.58
2023-04-15T20:45:36.011Z,71.75
2023-04-15T20:48:02.703Z,71.83
2023-04-15T20:50:29.235Z,71.96
2023-04-15T20:52:55.784Z,71.75
2023-04-15T20:55:22.349Z,71.73
2023-04-15T20:57:48.965Z,71.90
2023-04-15T21:00:15.756Z,71.99
2023-04-15T21:02:42.434Z,72.01
2023-04-15T21:05:09.273Z,72.40
2023-04-15T21:07:35.930Z,72.12
2023-04-15T21:10:02.872Z,72.31
2023-04-15T21:12:29.463Z,72.28
2023-04-15T21:14:56.002Z,72.32
2023-04-15T21:17:22.589Z,72.26
2023-04-15T21:19:49.397Z,72.27
2023-04-15T21:22:16.036Z,72.20
2023-04-15T21:24:42.566Z,72.21
2023-04-15T21:27:09.134Z,72.38
2023-04-15T21:29:35.728Z,72.62
2023-04-15T21:32:02.411Z,72.71
2023-04-15T21:34:29.283Z,72.58
2023-04-15T21:36:56.108Z,72.93
2023-04-15T21:39:22.979Z,72.57
2023-04-15T21:41:49.598Z,72.69
2023-04-15T21:44:16.178Z,72.64
2023-04-15T21:46:45.995Z,72.68
2023-04-15T21:49:13.306Z,72.83
2023-04-15T21:51:39.976Z,72.93
2023-04-15T21:54:07.287Z,73.06
2023-04-15T21:56:34.001Z,72.97
2023-04-15T21:59:00.641Z,73.16
2023-04-15T22:01:27.333Z,73.12
2023-04-15T22:03:54.226Z,73.28
2023-04-15T22:06:21.225Z,73.44
2023-04-15T22:08:56.694Z,73.63
2023-04-15T22:11:29.638Z,73.54
2023-04-15T22:13:57.201Z,73.40
2023-04-15T22:16:25.971Z,73.51
2023-04-15T22:18:52.921Z,73.87
2023-04-15T22:21:19.587Z,74.08
2023-04-15T22:23:48.269Z,74.23
2023-04-15T22:26:14.940Z,74.04
2023-04-15T22:28:41.558Z,74.10
2023-04-15T22:31:08.380Z,73.80
2023-04-15T22:33:35.056Z,73.95
2023-04-15T22:36:01.550Z,74.29
2023-04-15T22:38:28.058Z,74.38
2023-04-15T22:40:54.708Z,74.33
2023-04-15T22:43:21.905Z,74.37
2023-04-15T22:45:49.933Z,74.31
2023-04-15T22:48:17.704Z,74.28
2023-04-15T22:50:44.441Z,74.33
2023-04-15T22:53:11.012Z,74.45
2023-04-15T22:55:38.417Z,74.68
2023-04-15T22:58:05.005Z,74.81
2023-04-15T23:00:32.761Z,74.92
2023-04-15T23:02:59.514Z,75.17
2023-04-15T23:05:26.826Z,75.19
2023-04-15T23:07:53.428Z,75.41
2023-04-15T23:10:20.119Z,75.57
2023-04-15T23:12:46.713Z,75.72
2023-04-15T23:15:13.266Z,75.63
2023-04-15T23:17:41.584Z,75.52
2023-04-15T23:20:08.594Z,75.54
2023-04-15T23:22:38.058Z,75.75
2023-04-15T23:25:05.536Z,76.00
2023-04-15T23:27:32.268Z,75.87
2023-04-15T23:29:58.946Z,76.02
2023-04-15T23:32:26.581Z,76.13
2023-04-15T23:34:53.427Z,76.16
2023-04-15T23:37:20.012Z,76.30
2023-04-15T23:39:46.630Z,76.49
2023-04-15T23:42:13.340Z,76.70
2023-04-15T23:44:39.888Z,76.94
2023-04-15T23:47:06.629Z,77.24
2023-04-15T23:49:33.310Z,77.50
2023-04-15T23:52:00.545Z,78.00
2023-04-15T23:54:27.022Z,78.27
2023-04-15T23:56:53.657Z,78.66
2023-04-15T23:59:20.227Z,78.79
